Time;durP1;ratioP1;P1;durP2;ratioP2;P2;SDS_P1;SDS_P2;PMS_P1;PMS_P2;Temp;Humidity;BMP_temperature;BMP_pressure;BME280_temperature;BME280_humidity;BME280_pressure;Samples;Min_cycle;Max_cycle;Signal;HPM_P1;HPM_P2
2023/06/12 05:26:16;;;;;;;6.68;5.13;;;19.10;97.20;;;;;;5072129;28;20367;-70
2023/06/12 05:28:42;;;;;;;7.57;5.50;;;18.70;97.30;;;;;;5071389;28;20024;-70
2023/06/12 05:31:08;;;;;;;6.63;5.50;;;18.80;96.90;;;;;;5070765;28;20024;-70
2023/06/12 05:33:34;;;;;;;8.63;4.88;;;18.90;96.60;;;;;;5069337;28;20055;-71
2023/06/12 05:35:59;;;;;;;6.82;5.47;;;19.10;96.10;;;;;;5070539;28;20443;-70
2023/06/12 05:38:25;;;;;;;9.00;5.40;;;19.10;96.10;;;;;;5064431;28;20071;-70
2023/06/12 05:40:52;;;;;;;7.15;5.38;;;19.30;95.70;;;;;;5048684;28;20457;-69
2023/06/12 05:43:18;;;;;;;6.78;4.88;;;19.30;95.50;;;;;;5050893;28;20152;-69
2023/06/12 05:45:43;;;;;;;7.03;5.25;;;19.40;95.30;;;;;;5050491;28;20172;-68
2023/06/12 05:48:09;;;;;;;5.65;5.05;;;19.50;95.20;;;;;;5050041;28;20450;-68
2023/06/12 05:50:35;;;;;;;7.60;5.38;;;19.60;95.00;;;;;;5050298;28;20488;-65
2023/06/12 05:53:01;;;;;;;5.95;5.15;;;19.70;94.80;;;;;;5050026;28;20033;-64
2023/06/12 05:55:27;;;;;;;9.68;5.00;;;19.80;94.60;;;;;;5050331;28;20021;-64
2023/06/12 05:57:52;;;;;;;6.75;5.28;;;19.90;94.30;;;;;;5050240;28;20034;-64
2023/06/12 06:00:18;;;;;;;5.85;5.25;;;20.00;94.30;;;;;;5050138;28;20033;-66
2023/06/12 06:02:45;;;;;;;5.82;4.72;;;20.10;94.10;;;;;;5048620;28;20029;-64
2023/06/12 06:05:11;;;;;;;6.80;4.68;;;20.20;93.90;;;;;;5048397;28;20119;-64
2023/06/12 06:07:36;;;;;;;5.93;5.07;;;20.30;94.10;;;;;;5049968;28;20129;-64
2023/06/12 06:10:04;;;;;;;6.05;5.32;;;20.40;93.70;;;;;;5049879;28;20413;-65
2023/06/12 06:12:30;;;;;;;6.72;5.25;;;20.40;93.30;;;;;;5049749;28;20386;-64
2023/06/12 06:14:56;;;;;;;9.32;5.70;;;20.50;93.20;;;;;;5049755;28;20021;-64
2023/06/12 06:17:21;;;;;;;7.20;5.03;;;20.50;93.10;;;;;;5049859;28;20033;-65
2023/06/12 06:19:47;;;;;;;9.02;5.20;;;20.70;93.40;;;;;;5049429;28;20031;-63
2023/06/12 06:22:14;;;;;;;7.53;5.47;;;20.60;93.50;;;;;;5048367;28;20482;-65
2023/06/12 06:24:41;;;;;;;6.95;5.60;;;20.60;93.50;;;;;;5048473;28;20033;-65
2023/06/12 06:27:08;;;;;;;6.57;5.65;;;20.60;93.30;;;;;;5049601;28;20022;-66
2023/06/12 06:29:33;;;;;;;9.23;4.97;;;20.60;93.60;;;;;;5050990;28;20405;-66
2023/06/12 06:31:59;;;;;;;7.20;5.25;;;20.60;93.50;;;;;;5051402;28;20105;-66
2023/06/12 06:34:25;;;;;;;5.72;5.15;;;20.70;93.40;;;;;;5049948;28;20037;-65
2023/06/12 06:36:51;;;;;;;7.72;5.07;;;20.70;94.20;;;;;;5039106;28;20028;-65
2023/06/12 06:39:16;;;;;;;6.72;4.80;;;20.70;94.30;;;;;;5039240;28;20037;-64
2023/06/12 06:41:42;;;;;;;8.13;5.65;;;20.80;93.60;;;;;;5034458;28;20366;-65
2023/06/12 06:44:07;;;;;;;6.78;4.90;;;20.90;93.70;;;;;;5035720;28;20055;-64
2023/06/12 06:46:33;;;;;;;8.52;5.38;;;21.00;94.00;;;;;;5035927;28;20025;-65
2023/06/12 06:48:58;;;;;;;5.38;4.88;;;21.00;93.90;;;;;;5035360;28;20566;-69
2023/06/12 06:51:24;;;;;;;7.88;5.50;;;21.10;93.70;;;;;;5036080;28;20076;-65
2023/06/12 06:53:50;;;;;;;6.35;5.45;;;21.20;93.50;;;;;;5035887;28;20022;-65
2023/06/12 06:56:16;;;;;;;6.82;5.32;;;21.30;93.60;;;;;;5034552;28;20030;-65
2023/06/12 06:58:41;;;;;;;;;;;21.40;93.50;;;;;;5038666;28;20018;-66
2023/06/12 07:01:07;;;;;;;7.95;4.95;;;21.50;93.40;;;;;;5033541;28;19905;-65
2023/06/12 07:03:33;;;;;;;6.25;4.97;;;21.50;93.10;;;;;;5033578;28;20079;-64
2023/06/12 07:05:58;;;;;;;7.85;5.40;;;21.70;93.70;;;;;;5047338;28;20029;-66
2023/06/12 07:08:24;;;;;;;8.70;5.63;;;21.80;92.80;;;;;;5053364;28;20017;-64
2023/06/12 07:10:50;;;;;;;7.45;5.75;;;21.90;92.90;;;;;;5053629;28;20025;-64
2023/06/12 07:13:15;;;;;;;6.63;5.05;;;22.00;92.40;;;;;;5053334;28;20025;-64
2023/06/12 07:15:41;;;;;;;8.30;5.32;;;22.10;92.30;;;;;;5054667;28;20024;-65
2023/06/12 07:18:07;;;;;;;;;;;22.20;92.20;;;;;;5055533;28;20025;-64
2023/06/12 07:20:32;;;;;;;7.07;4.95;;;22.40;91.30;;;;;;5054778;28;19954;-64
2023/06/12 07:22:58;;;;;;;;;;;22.50;91.60;;;;;;5055742;28;20029;-64
2023/06/12 07:25:23;;;;;;;6.88;5.47;;;22.50;91.30;;;;;;5054796;28;19913;-63
2023/06/12 07:27:49;;;;;;;7.50;5.30;;;22.60;92.00;;;;;;5053476;28;20107;-64
2023/06/12 07:30:15;;;;;;;;;;;22.70;91.40;;;;;;5055423;28;20047;-64
2023/06/12 07:32:40;;;;;;;5.80;4.80;;;22.80;91.00;;;;;;5054820;28;19927;-64
2023/06/12 07:35:06;;;;;;;7.45;5.45;;;22.90;90.90;;;;;;5054697;28;20033;-64
2023/06/12 07:37:35;;;;;;;7.32;5.20;;;23.10;91.00;;;;;;5055156;28;20029;-64
2023/06/12 07:40:04;;;;;;;7.07;4.80;;;23.30;90.50;;;;;;5054681;28;20116;-65
2023/06/12 07:42:30;;;;;;;9.43;5.15;;;23.40;90.40;;;;;;5054879;28;20025;-65
2023/06/12 07:44:55;;;;;;;5.80;5.10;;;23.70;89.60;;;;;;5055114;28;20082;-65
2023/06/12 07:47:20;;;;;;;;;;;24.80;88.30;;;;;;5054399;28;20041;-65
2023/06/12 07:49:46;;;;;;;5.97;4.97;;;26.30;83.80;;;;;;5053696;28;19912;-65
2023/06/12 07:52:12;;;;;;;6.88;5.38;;;27.00;80.70;;;;;;5054276;28;20017;-65
2023/06/12 07:54:37;;;;;;;5.47;4.88;;;26.80;80.80;;;;;;5055061;28;20036;-65
2023/06/12 07:57:04;;;;;;;6.03;5.40;;;26.70;80.30;;;;;;5054573;28;20547;-65
2023/06/12 07:59:29;;;;;;;7.03;5.22;;;26.20;80.80;;;;;;5053242;28;20496;-65
2023/06/12 08:01:56;;;;;;;6.28;4.70;;;26.00;82.40;;;;;;5054228;28;20029;-65
2023/06/12 08:04:21;;;;;;;7.50;4.63;;;25.90;80.80;;;;;;5054232;28;20029;-64
2023/06/12 08:06:47;;;;;;;5.82;4.65;;;26.10;80.00;;;;;;5054727;28;20021;-65
2023/06/12 08:09:13;;;;;;;6.50;4.65;;;27.20;78.70;;;;;;5054357;28;20041;-65
2023/06/12 08:11:40;;;;;;;7.65;4.63;;;29.50;74.20;;;;;;5054244;28;20021;-65
2023/06/12 08:14:05;;;;;;;7.78;4.72;;;31.80;71.10;;;;;;5054482;28;20070;-63
2023/06/12 08:16:32;;;;;;;5.53;4.90;;;34.00;67.10;;;;;;5054433;28;20020;-65
2023/06/12 08:18:57;;;;;;;5.18;4.28;;;34.80;63.90;;;;;;5053207;28;20489;-65
2023/06/12 08:21:25;;;;;;;4.97;4.25;;;35.00;63.90;;;;;;5054125;28;20147;-66
2023/06/12 08:23:51;;;;;;;8.20;4.90;;;35.20;61.40;;;;;;5054019;28;20186;-66
2023/06/12 08:26:17;;;;;;;5.05;4.55;;;35.30;61.30;;;;;;5054023;28;20050;-65
2023/06/12 08:28:42;;;;;;;4.65;3.80;;;35.90;60.30;;;;;;5052462;28;20100;-65
2023/06/12 08:31:08;;;;;;;5.18;4.20;;;35.90;60.00;;;;;;5047807;28;20064;-64
2023/06/12 08:33:33;;;;;;;4.97;4.07;;;36.10;59.30;;;;;;5055211;28;20030;-65
2023/06/12 08:35:59;;;;;;;5.25;4.45;;;37.10;57.60;;;;;;5054749;28;20028;-65
2023/06/12 08:38:25;;;;;;;6.13;4.10;;;37.80;56.70;;;;;;5053008;28;20025;-65
2023/06/12 08:40:56;;;;;;;5.85;3.90;;;38.10;55.80;;;;;;5054069;28;20031;-65
2023/06/12 08:43:22;;;;;;;5.15;4.18;;;38.40;54.30;;;;;;5053565;28;20033;-65
2023/06/12 08:45:51;;;;;;;5.30;3.85;;;38.40;53.40;;;;;;5051944;28;20039;-65
2023/06/12 08:48:18;;;;;;;6.15;3.63;;;37.80;53.30;;;;;;5052167;28;20074;-65
2023/06/12 08:50:45;;;;;;;5.78;4.35;;;36.70;53.80;;;;;;5053429;28;20478;-64
2023/06/12 08:53:11;;;;;;;5.30;3.55;;;37.40;54.20;;;;;;5053552;28;20021;-65
2023/06/12 08:55:39;;;;;;;5.47;4.40;;;38.70;53.00;;;;;;5052044;28;20389;-65
2023/06/12 08:58:07;;;;;;;5.63;3.88;;;38.40;53.30;;;;;;5053662;28;20021;-65
2023/06/12 09:00:32;;;;;;;6.75;4.22;;;38.60;53.30;;;;;;5053233;28;20027;-66
2023/06/12 09:03:00;;;;;;;7.72;4.28;;;38.80;52.80;;;;;;5053814;28;20028;-65
2023/06/12 09:05:37;;;;;;;4.90;3.50;;;39.70;52.60;;;;;;5053202;28;20067;-66
2023/06/12 09:08:03;;;;;;;4.03;3.63;;;40.50;52.20;;;;;;5053697;28;20029;-64
2023/06/12 09:10:32;;;;;;;6.40;3.85;;;41.00;51.00;;;;;;5053598;28;20484;-65
2023/06/12 09:13:01;;;;;;;5.70;3.95;;;41.00;50.30;;;;;;5054237;28;20021;-66
2023/06/12 09:15:27;;;;;;;6.15;3.92;;;40.80;49.90;;;;;;5053599;28;20025;-66
2023/06/12 09:17:54;;;;;;;5.78;3.83;;;39.90;50.50;;;;;;5053139;28;20075;-65
2023/06/12 09:20:28;;;;;;;6.43;3.83;;;39.70;50.30;;;;;;5049944;28;20063;-65
2023/06/12 09:22:55;;;;;;;4.65;4.03;;;38.80;50.30;;;;;;5039707;28;20405;-63
2023/06/12 09:25:25;;;;;;;4.32;3.85;;;38.50;51.20;;;;;;5052648;28;20039;-65
2023/06/12 09:27:51;;;;;;;7.57;4.07;;;38.30;51.00;;;;;;5054014;28;20044;-64
2023/06/12 09:30:17;;;;;;;8.00;4.70;;;37.90;52.10;;;;;;5051715;28;20430;-65
2023/06/12 09:32:44;;;;;;;6.88;4.18;;;39.30;51.30;;;;;;5051599;28;20032;-65
2023/06/12 09:35:11;;;;;;;5.15;4.20;;;40.10;50.20;;;;;;5046195;28;20026;-65
2023/06/12 09:37:38;;;;;;;4.68;3.83;;;41.60;49.90;;;;;;5033464;28;20017;-65
2023/06/12 09:40:14;;;;;;;6.72;4.53;;;42.20;47.60;;;;;;5032112;28;20505;-65
2023/06/12 09:42:42;;;;;;;4.88;4.18;;;40.30;49.20;;;;;;5033333;28;20022;-65
2023/06/12 09:45:20;;;;;;;4.90;4.05;;;38.90;50.90;;;;;;5031423;28;20051;-65
2023/06/12 09:47:51;;;;;;;4.78;4.30;;;37.10;50.20;;;;;;5031709;28;20034;-64
2023/06/12 09:50:18;;;;;;;4.40;4.00;;;35.90;50.60;;;;;;5031077;28;20024;-68
2023/06/12 09:52:48;;;;;;;6.40;4.20;;;35.30;50.80;;;;;;5031442;28;20029;-63
2023/06/12 09:55:18;;;;;;;8.27;4.10;;;35.70;51.40;;;;;;5033286;28;20025;-65
2023/06/12 09:57:50;;;;;;;6.53;4.00;;;35.40;50.60;;;;;;5033315;28;20478;-64
2023/06/12 10:00:17;;;;;;;4.72;4.22;;;34.20;51.40;;;;;;5033322;28;20029;-65
2023/06/12 10:03:00;;;;;;;6.38;3.95;;;33.00;52.80;;;;;;5033531;28;20036;-66
2023/06/12 10:05:35;;;;;;;4.85;4.35;;;32.50;54.00;;;;;;5032448;28;20119;-66
2023/06/12 10:08:03;;;;;;;5.43;4.85;;;32.60;54.30;;;;;;5031184;28;20490;-66
2023/06/12 10:10:30;;;;;;;4.75;4.25;;;33.40;54.40;;;;;;5030914;28;20017;-64
2023/06/12 10:12:56;;;;;;;5.60;4.60;;;34.50;53.40;;;;;;5035248;28;20024;-64
2023/06/12 10:15:24;;;;;;;5.47;4.57;;;34.00;53.00;;;;;;5044967;23;20085;-66
2023/06/12 10:17:53;;;;;;;8.82;5.03;;;32.90;53.20;;;;;;5005604;28;20034;-64
2023/06/12 10:20:20;;;;;;;5.63;4.35;;;33.60;54.00;;;;;;4997079;28;20089;-65
2023/06/12 10:22:46;;;;;;;4.85;4.25;;;34.30;53.60;;;;;;4997405;28;20054;-64
2023/06/12 10:25:13;;;;;;;6.80;4.93;;;35.30;53.30;;;;;;4997103;28;20058;-65
2023/06/12 10:27:39;;;;;;;5.47;4.95;;;35.70;52.40;;;;;;4997345;28;20031;-65
2023/06/12 10:30:10;;;;;;;7.97;4.72;;;35.30;53.20;;;;;;4996208;28;20032;-65
2023/06/12 10:32:36;;;;;;;5.35;4.85;;;35.10;54.00;;;;;;4996877;28;20027;-65
2023/06/12 10:35:01;;;;;;;5.65;5.03;;;35.70;53.80;;;;;;4995911;28;20034;-65
2023/06/12 10:37:32;;;;;;;6.40;5.10;;;34.70;54.10;;;;;;4997229;28;20474;-65
2023/06/12 10:40:19;;;;;;;6.13;5.40;;;33.00;55.50;;;;;;4997044;28;20057;-65
2023/06/12 10:42:55;;;;;;;7.90;4.93;;;31.60;57.20;;;;;;4996976;28;20030;-64
2023/06/12 10:45:26;;;;;;;15.57;5.28;;;31.90;56.70;;;;;;4996699;28;20122;-66
2023/06/12 10:48:04;;;;;;;8.75;5.25;;;32.50;56.50;;;;;;5011899;28;20038;-65
2023/06/12 10:50:48;;;;;;;5.90;5.00;;;33.50;55.20;;;;;;5016003;28;20141;-65
2023/06/12 10:53:21;;;;;;;7.00;5.28;;;34.40;54.40;;;;;;5016282;28;20036;-65
2023/06/12 10:55:47;;;;;;;6.03;5.30;;;34.20;54.40;;;;;;5015908;28;20022;-64
2023/06/12 10:58:15;;;;;;;6.03;4.88;;;33.80;54.70;;;;;;5016104;28;20382;-65
2023/06/12 11:00:46;;;;;;;4.80;4.40;;;35.00;53.50;;;;;;5014524;28;20022;-65
2023/06/12 11:03:14;;;;;;;8.93;5.05;;;36.50;52.10;;;;;;5015784;28;20445;-65
2023/06/12 11:05:51;;;;;;;6.22;4.55;;;37.30;51.40;;;;;;5015691;28;20026;-65
2023/06/12 11:08:17;;;;;;;5.13;4.63;;;37.30;50.80;;;;;;5016324;28;20033;-65
2023/06/12 11:10:43;;;;;;;5.18;4.72;;;36.90;50.60;;;;;;5015892;28;20037;-65
2023/06/12 11:13:09;;;;;;;6.43;4.90;;;35.70;50.90;;;;;;5015952;28;20387;-65
2023/06/12 11:15:42;;;;;;;7.07;4.47;;;34.90;52.20;;;;;;5015471;28;20069;-66
2023/06/12 11:18:09;;;;;;;6.93;4.97;;;33.50;53.30;;;;;;5015387;28;20096;-65
2023/06/12 11:20:35;;;;;;;4.85;4.45;;;33.00;54.20;;;;;;5016573;28;20041;-65
2023/06/12 11:23:02;;;;;;;7.70;4.60;;;32.50;54.50;;;;;;5015455;28;20037;-65
2023/06/12 11:25:43;;;;;;;6.57;4.75;;;31.80;54.60;;;;;;5014281;28;20449;-67
2023/06/12 11:28:11;;;;;;;6.97;5.00;;;31.30;55.00;;;;;;5015258;28;20107;-65
2023/06/12 11:30:37;;;;;;;6.63;4.95;;;31.00;55.00;;;;;;5015360;28;20032;-64
2023/06/12 11:33:08;;;;;;;6.45;5.00;;;30.70;55.90;;;;;;5014094;28;20106;-65
2023/06/12 11:35:39;;;;;;;6.32;5.38;;;30.10;56.40;;;;;;5016203;28;20029;-65
2023/06/12 11:38:05;;;;;;;5.93;5.32;;;29.60;56.90;;;;;;5015524;28;20339;-65
2023/06/12 11:40:31;;;;;;;11.63;5.68;;;29.70;57.00;;;;;;5015560;28;20053;-65
2023/06/12 11:42:56;;;;;;;5.35;4.85;;;29.40;57.30;;;;;;5015060;28;20493;-65
2023/06/12 11:45:22;;;;;;;6.22;4.65;;;29.30;58.00;;;;;;5015040;28;20030;-65
2023/06/12 11:47:48;;;;;;;5.47;4.97;;;29.10;58.50;;;;;;5014867;28;20032;-65
2023/06/12 11:50:17;;;;;;;8.02;5.20;;;29.00;58.50;;;;;;5013768;28;20512;-65
2023/06/12 11:52:45;;;;;;;9.63;4.72;;;28.80;59.20;;;;;;5014841;28;20475;-63
2023/06/12 11:55:12;;;;;;;7.05;5.05;;;28.80;59.40;;;;;;5014836;28;20025;-64
2023/06/12 11:57:38;;;;;;;9.75;5.25;;;28.60;59.70;;;;;;5015154;28;20022;-65
2023/06/12 12:00:16;;;;;;;8.77;5.10;;;28.60;59.20;;;;;;5015138;28;20022;-64
2023/06/12 12:02:46;;;;;;;8.05;5.15;;;28.50;59.10;;;;;;5015245;28;20483;-64
2023/06/12 12:05:11;;;;;;;6.97;5.10;;;28.60;58.90;;;;;;5015463;28;20087;-65
2023/06/12 12:07:39;;;;;;;5.55;4.95;;;28.60;58.90;;;;;;5014873;28;20481;-64
2023/06/12 12:10:10;;;;;;;6.78;4.68;;;28.50;59.00;;;;;;5016282;28;20165;-65
2023/06/12 12:12:49;;;;;;;6.75;5.90;;;28.30;59.10;;;;;;5015123;28;20026;-64
2023/06/12 12:15:16;;;;;;;5.65;5.03;;;28.20;59.40;;;;;;5014121;28;20022;-65
2023/06/12 12:17:42;;;;;;;5.47;4.70;;;28.00;58.90;;;;;;5014891;28;20026;-67
2023/06/12 12:20:20;;;;;;;5.30;4.72;;;27.90;59.10;;;;;;5013799;28;20029;-67
2023/06/12 12:22:48;;;;;;;6.47;5.43;;;27.90;59.00;;;;;;5015175;28;20601;-68
2023/06/12 12:25:21;;;;;;;7.50;5.03;;;28.00;58.60;;;;;;5014984;28;20036;-67
2023/06/12 12:27:49;;;;;;;6.25;5.00;;;28.10;58.70;;;;;;5015360;28;20498;-67
2023/06/12 12:30:16;;;;;;;6.28;4.63;;;28.20;58.70;;;;;;5015586;28;20057;-67
2023/06/12 12:32:47;;;;;;;8.35;5.40;;;28.20;58.40;;;;;;5015102;28;20034;-67
2023/06/12 12:35:14;;;;;;;6.70;5.22;;;28.20;58.70;;;;;;5015147;28;20052;-66
2023/06/12 12:37:40;;;;;;;5.18;4.68;;;28.10;58.90;;;;;;5016779;28;20018;-66
2023/06/12 12:40:10;;;;;;;5.65;4.97;;;28.10;58.80;;;;;;5013273;28;20032;-67
2023/06/12 12:42:54;;;;;;;6.80;4.82;;;28.10;58.50;;;;;;5014644;28;20106;-67
2023/06/12 12:45:20;;;;;;;7.75;4.47;;;28.00;58.90;;;;;;5017667;28;20053;-69
2023/06/12 12:47:49;;;;;;;7.22;4.57;;;28.10;59.60;;;;;;5006214;28;20030;-68
2023/06/12 12:50:17;;;;;;;7.53;5.13;;;28.10;57.80;;;;;;4998545;28;20372;-66
2023/06/12 12:52:44;;;;;;;35.72;6.60;;;28.10;57.80;;;;;;4999117;28;20022;-66
2023/06/12 12:55:13;;;;;;;6.60;5.13;;;28.20;58.20;;;;;;4998190;28;20379;-66
2023/06/12 12:57:42;;;;;;;5.78;4.50;;;28.20;57.60;;;;;;4995616;28;20037;-66
2023/06/12 13:00:10;;;;;;;6.72;4.53;;;28.40;58.10;;;;;;4994529;28;20475;-66
2023/06/12 13:02:37;;;;;;;7.03;4.85;;;28.60;58.00;;;;;;4994528;28;20015;-66
2023/06/12 13:05:04;;;;;;;7.00;4.68;;;28.50;58.40;;;;;;4993305;28;20060;-65
2023/06/12 13:07:36;;;;;;;4.85;4.43;;;28.30;58.00;;;;;;4992603;28;20027;-68
2023/06/12 13:10:09;;;;;;;5.88;5.28;;;28.30;58.80;;;;;;4992746;28;20081;-68
2023/06/12 13:12:35;;;;;;;6.10;5.22;;;28.30;58.40;;;;;;4994649;28;20034;-69
2023/06/12 13:15:00;;;;;;;5.82;4.45;;;28.20;59.10;;;;;;4994125;28;20027;-68
2023/06/12 13:17:26;;;;;;;6.18;4.93;;;28.20;60.00;;;;;;5004403;28;20442;-68
2023/06/12 13:19:52;;;;;;;6.07;5.07;;;28.30;59.20;;;;;;5014180;28;20101;-68
2023/06/12 13:22:18;;;;;;;5.07;4.55;;;28.40;59.10;;;;;;5013851;28;20018;-68
2023/06/12 13:24:44;;;;;;;6.20;4.47;;;28.40;58.90;;;;;;5008537;28;20078;-68
2023/06/12 13:27:10;;;;;;;5.32;4.57;;;28.40;58.70;;;;;;4993884;28;20507;-67
2023/06/12 13:29:37;;;;;;;7.63;5.28;;;28.40;58.80;;;;;;4993794;28;20022;-69
2023/06/12 13:32:03;;;;;;;6.15;4.80;;;28.50;57.80;;;;;;4993829;28;20026;-68
2023/06/12 13:34:29;;;;;;;5.13;4.55;;;28.30;57.20;;;;;;4993979;28;20048;-67
2023/06/12 13:36:55;;;;;;;8.68;4.88;;;28.30;57.60;;;;;;4992453;28;20026;-69
2023/06/12 13:39:21;;;;;;;5.88;4.88;;;28.40;58.10;;;;;;4994090;28;20042;-68
2023/06/12 13:41:47;;;;;;;5.30;4.53;;;28.50;57.70;;;;;;4994027;28;20026;-68
2023/06/12 13:44:13;;;;;;;6.20;4.57;;;28.60;57.80;;;;;;4993286;28;20018;-68
2023/06/12 13:46:39;;;;;;;5.35;4.85;;;28.50;58.10;;;;;;4996431;28;20068;-68
2023/06/12 13:49:05;;;;;;;6.03;4.80;;;28.50;58.30;;;;;;4997838;28;20058;-67
2023/06/12 13:51:36;;;;;;;6.72;4.60;;;28.60;58.40;;;;;;4997769;28;20030;-69
2023/06/12 13:54:03;;;;;;;6.05;4.72;;;28.60;58.20;;;;;;4998190;28;20354;-67
2023/06/12 13:56:28;;;;;;;5.85;4.93;;;28.70;58.40;;;;;;4997415;28;20053;-67
2023/06/12 13:58:54;;;;;;;7.90;5.10;;;28.60;57.70;;;;;;4997741;28;20418;-69
2023/06/12 14:01:20;;;;;;;5.55;4.60;;;28.60;57.70;;;;;;4997608;28;20104;-67
2023/06/12 14:03:45;;;;;;;5.35;4.72;;;28.70;57.60;;;;;;4997263;28;20022;-68
2023/06/12 14:06:12;;;;;;;7.03;4.55;;;28.70;57.50;;;;;;4997571;28;20054;-68
2023/06/12 14:08:40;;;;;;;8.93;4.43;;;28.90;57.50;;;;;;5012629;28;20030;-68
2023/06/12 14:11:09;;;;;;;5.53;4.85;;;28.90;57.00;;;;;;5012477;28;20033;-68
2023/06/12 14:13:37;;;;;;;5.20;4.70;;;29.00;56.80;;;;;;4997516;28;20101;-67
2023/06/12 14:16:03;;;;;;;5.63;4.60;;;29.00;57.00;;;;;;4997829;28;20027;-67
2023/06/12 14:18:29;;;;;;;8.15;4.60;;;29.00;56.80;;;;;;5016344;28;20386;-67
2023/06/12 14:20:55;;;;;;;8.88;4.72;;;28.80;57.30;;;;;;5015084;28;20059;-68
2023/06/12 14:23:22;;;;;;;6.32;4.55;;;28.80;57.40;;;;;;5016774;28;20541;-67
2023/06/12 14:25:47;;;;;;;6.57;4.63;;;28.80;57.30;;;;;;5016587;28;20092;-68
2023/06/12 14:28:13;;;;;;;5.20;4.43;;;28.90;57.50;;;;;;5016998;28;20037;-68
2023/06/12 14:30:38;;;;;;;8.02;5.00;;;28.90;57.10;;;;;;5016455;28;20034;-68
2023/06/12 14:33:04;;;;;;;5.40;4.80;;;28.80;56.60;;;;;;5010594;28;20050;-67
2023/06/12 14:35:30;;;;;;;6.43;4.55;;;28.90;56.40;;;;;;5011591;28;20023;-68
2023/06/12 14:37:55;;;;;;;5.88;4.93;;;28.90;56.40;;;;;;5028837;28;20428;-69
2023/06/12 14:40:21;;;;;;;5.10;4.53;;;28.70;56.60;;;;;;5036181;28;20075;-68
2023/06/12 14:42:48;;;;;;;6.90;4.60;;;28.80;56.60;;;;;;5034796;28;20437;-68
2023/06/12 14:45:14;;;;;;;5.18;4.68;;;28.80;56.60;;;;;;5034722;28;20106;-67
2023/06/12 14:47:39;;;;;;;5.97;4.72;;;28.80;56.70;;;;;;5021792;28;20081;-67
2023/06/12 14:50:05;;;;;;;4.75;4.35;;;28.90;56.70;;;;;;5016175;28;20034;-68
2023/06/12 14:52:31;;;;;;;6.85;5.30;;;28.80;56.50;;;;;;5016531;28;20037;-66
2023/06/12 14:54:56;;;;;;;5.35;4.35;;;28.80;56.90;;;;;;5016032;28;20030;-66
2023/06/12 14:57:22;;;;;;;5.88;4.43;;;29.00;56.80;;;;;;5015885;28;20076;-67
2023/06/12 14:59:47;;;;;;;7.10;4.80;;;29.00;56.30;;;;;;5011051;28;20022;-66
2023/06/12 15:02:13;;;;;;;5.95;4.85;;;29.00;55.80;;;;;;4996395;28;20034;-66
2023/06/12 15:04:39;;;;;;;5.22;4.47;;;28.90;55.90;;;;;;5012459;28;20018;-64
2023/06/12 15:07:05;;;;;;;6.63;4.68;;;28.80;56.40;;;;;;4996716;28;20061;-64
2023/06/12 15:09:30;;;;;;;12.18;4.97;;;28.80;56.60;;;;;;4995912;28;20030;-67
2023/06/12 15:11:56;;;;;;;6.35;4.72;;;28.80;56.20;;;;;;5014867;28;20542;-67
2023/06/12 15:14:22;;;;;;;8.30;4.50;;;28.80;56.10;;;;;;5014315;28;20121;-67
2023/06/12 15:16:47;;;;;;;5.45;4.75;;;28.70;56.60;;;;;;5015326;28;20034;-67
2023/06/12 15:19:13;;;;;;;5.60;4.45;;;28.80;56.40;;;;;;5014605;28;20112;-67
2023/06/12 15:21:38;;;;;;;7.55;4.53;;;28.80;56.50;;;;;;5030738;28;20017;-69
2023/06/12 15:24:04;;;;;;;7.07;4.55;;;28.90;57.30;;;;;;5034985;28;20032;-67
2023/06/12 15:26:30;;;;;;;8.73;5.05;;;28.90;55.80;;;;;;5026632;28;20040;-67
2023/06/12 15:28:55;;;;;;;10.85;4.82;;;28.80;55.80;;;;;;4999707;28;20117;-69
2023/06/12 15:31:21;;;;;;;6.82;4.70;;;28.70;55.70;;;;;;4994316;28;20072;-69
2023/06/12 15:33:47;;;;;;;5.93;4.85;;;28.60;55.60;;;;;;5002597;28;20022;-68
2023/06/12 15:36:12;;;;;;;9.98;4.30;;;28.70;55.70;;;;;;5002885;28;20034;-68
2023/06/12 15:38:43;;;;;;;6.43;4.68;;;28.80;56.20;;;;;;5013828;28;20033;-68
2023/06/12 15:41:10;;;;;;;5.95;4.82;;;28.70;55.20;;;;;;5014829;28;20022;-69
2023/06/12 15:43:36;;;;;;;6.78;4.53;;;28.60;55.80;;;;;;5014761;28;20113;-70
2023/06/12 15:46:06;;;;;;;6.38;4.72;;;28.50;55.70;;;;;;5011501;28;20481;-68
2023/06/12 15:48:33;;;;;;;6.68;4.47;;;28.50;55.80;;;;;;5012705;28;20475;-69
2023/06/12 15:50:59;;;;;;;8.07;4.97;;;28.40;56.00;;;;;;5019656;28;20542;-69
2023/06/12 15:53:27;;;;;;;6.72;4.32;;;28.40;56.20;;;;;;5044208;28;20039;-69
2023/06/12 15:55:52;;;;;;;6.25;4.70;;;28.30;56.30;;;;;;5034190;28;20021;-69
2023/06/12 15:58:18;;;;;;;7.60;4.72;;;28.30;56.30;;;;;;5014726;28;20109;-65
2023/06/12 16:00:44;;;;;;;7.10;4.80;;;28.10;56.50;;;;;;5007108;28;20164;-65
2023/06/12 16:03:09;;;;;;;7.40;4.80;;;28.10;56.60;;;;;;5011576;28;20052;-65
2023/06/12 16:05:35;;;;;;;5.07;4.57;;;28.30;56.60;;;;;;5008010;28;20532;-65
2023/06/12 16:08:01;;;;;;;5.80;4.50;;;28.30;56.60;;;;;;5010468;28;20486;-65
2023/06/12 16:10:27;;;;;;;6.38;4.32;;;28.30;55.60;;;;;;4997328;28;20034;-65
2023/06/12 16:12:55;;;;;;;5.80;4.40;;;28.20;55.80;;;;;;5011362;28;20503;-67
2023/06/12 16:15:21;;;;;;;8.48;4.55;;;28.20;55.90;;;;;;5012968;28;20438;-66
2023/06/12 16:17:47;;;;;;;5.22;4.22;;;28.30;55.60;;;;;;4996658;28;20045;-67
2023/06/12 16:20:12;;;;;;;5.25;4.60;;;28.20;55.50;;;;;;4995408;28;20116;-66
2023/06/12 16:22:38;;;;;;;8.48;4.75;;;28.20;55.70;;;;;;5006330;28;20026;-66
2023/06/12 16:25:04;;;;;;;5.03;4.60;;;28.20;55.80;;;;;;5014702;28;20108;-68
2023/06/12 16:27:30;;;;;;;5.18;4.60;;;28.10;55.50;;;;;;5015380;28;20436;-69
2023/06/12 16:29:55;;;;;;;8.15;4.45;;;28.10;55.30;;;;;;4997837;28;20372;-70
2023/06/12 16:32:24;;;;;;;5.95;4.38;;;28.10;55.60;;;;;;5009331;28;20026;-70
2023/06/12 16:34:50;;;;;;;7.07;4.25;;;28.00;55.40;;;;;;4994674;28;20048;-69
2023/06/12 16:37:19;;;;;;;6.95;5.05;;;27.90;55.90;;;;;;5014187;28;20557;-69
2023/06/12 16:39:56;;;;;;;7.13;4.78;;;28.00;56.40;;;;;;5014263;28;20022;-68
2023/06/12 16:42:21;;;;;;;5.78;4.88;;;27.90;56.00;;;;;;5012806;28;20433;-68
2023/06/12 16:44:47;;;;;;;7.07;4.57;;;27.90;56.30;;;;;;5012738;28;20114;-68
2023/06/12 16:47:13;;;;;;;8.50;4.43;;;27.80;56.00;;;;;;5012458;28;20431;-68
2023/06/12 16:49:39;;;;;;;5.32;4.47;;;27.80;55.90;;;;;;5014501;28;20463;-68
2023/06/12 16:52:05;;;;;;;5.47;4.55;;;27.70;55.80;;;;;;5014312;28;20572;-68
2023/06/12 16:54:31;;;;;;;11.05;4.85;;;27.70;55.70;;;;;;5013757;28;20030;-68
2023/06/12 16:56:59;;;;;;;5.45;4.40;;;27.60;55.80;;;;;;5012512;28;20022;-69
2023/06/12 16:59:25;;;;;;;6.28;4.50;;;27.70;55.60;;;;;;5014162;28;20080;-68
2023/06/12 17:01:50;;;;;;;4.88;3.97;;;27.60;55.90;;;;;;5009646;28;20022;-67
2023/06/12 17:04:16;;;;;;;7.63;4.50;;;27.60;55.60;;;;;;4994424;28;20026;-68
2023/06/12 17:06:41;;;;;;;5.10;4.10;;;27.50;55.80;;;;;;5005328;28;20022;-68
2023/06/12 17:09:08;;;;;;;8.02;4.53;;;27.50;55.80;;;;;;4994858;28;20044;-68
2023/06/12 17:11:33;;;;;;;9.27;4.43;;;27.40;55.70;;;;;;4994531;28;20015;-69
2023/06/12 17:13:59;;;;;;;5.30;4.40;;;27.40;55.80;;;;;;4994267;28;20038;-68
2023/06/12 17:16:25;;;;;;;5.72;4.85;;;27.40;56.00;;;;;;4994023;28;20084;-69
2023/06/12 17:18:50;;;;;;;6.60;4.30;;;27.40;56.10;;;;;;5009603;28;20141;-68
2023/06/12 17:21:16;;;;;;;6.22;4.65;;;27.40;56.40;;;;;;4999945;28;20023;-69
2023/06/12 17:23:42;;;;;;;7.40;4.55;;;27.40;56.60;;;;;;5005069;28;20037;-66
2023/06/12 17:26:07;;;;;;;7.43;4.75;;;27.30;56.90;;;;;;5010820;28;20043;-67
2023/06/12 17:28:33;;;;;;;7.32;4.80;;;27.30;56.90;;;;;;5017223;28;20022;-68
2023/06/12 17:31:00;;;;;;;7.10;4.93;;;27.30;56.60;;;;;;5012745;28;20475;-69
2023/06/12 17:33:26;;;;;;;8.43;5.10;;;27.30;56.50;;;;;;5016825;28;20030;-69
2023/06/12 17:35:53;;;;;;;6.80;4.97;;;27.30;56.60;;;;;;5016226;28;20025;-69
2023/06/12 17:38:19;;;;;;;6.80;4.47;;;27.30;56.70;;;;;;5014374;28;20493;-68
2023/06/12 17:40:44;;;;;;;5.63;4.85;;;27.20;56.80;;;;;;5013559;28;20022;-69
2023/06/12 17:43:10;;;;;;;5.05;4.30;;;27.20;57.00;;;;;;5015213;28;20024;-67
2023/06/12 17:45:35;;;;;;;7.55;4.93;;;27.20;57.10;;;;;;5016900;28;20052;-68
2023/06/12 17:48:02;;;;;;;6.30;4.75;;;27.10;57.30;;;;;;5025448;28;20022;-68
2023/06/12 17:50:29;;;;;;;6.10;4.60;;;27.10;57.20;;;;;;5013307;28;20017;-67
2023/06/12 17:52:55;;;;;;;4.90;4.40;;;27.00;57.10;;;;;;5013406;28;20033;-68
2023/06/12 17:55:21;;;;;;;6.70;4.57;;;27.00;57.40;;;;;;5013253;28;20030;-68
2023/06/12 17:57:46;;;;;;;9.63;4.20;;;27.00;57.30;;;;;;5008910;28;20025;-69
2023/06/12 18:00:12;;;;;;;7.22;4.85;;;26.90;57.40;;;;;;4992851;28;20022;-67
2023/06/12 18:02:38;;;;;;;5.53;4.35;;;26.90;57.00;;;;;;4993506;28;20368;-67
2023/06/12 18:05:04;;;;;;;9.02;4.82;;;26.80;57.20;;;;;;4995862;28;20034;-67
2023/06/12 18:07:29;;;;;;;5.10;4.55;;;26.80;57.30;;;;;;5010573;28;20483;-67
2023/06/12 18:09:55;;;;;;;5.30;4.32;;;26.80;57.10;;;;;;5014094;28;20033;-67
2023/06/12 18:12:20;;;;;;;5.32;4.45;;;26.70;57.30;;;;;;5012848;28;20068;-68